Time;durP1;ratioP1;P1;durP2;ratioP2;P2;SDS_P1;SDS_P2;PMS_P1;PMS_P2;Temp;Humidity;BMP_temperature;BMP_pressure;BME280_temperature;BME280_humidity;BME280_pressure;Samples;Min_cycle;Max_cycle;Signal;HPM_P1;HPM_P2
2021/07/28 00:00:20;;;;;;;9.23;5.90;;;;;;;21.19;59.79;100918.34;4919590;28;113890;-73
2021/07/28 00:02:47;;;;;;;9.45;5.85;;;;;;;21.19;59.93;100925.53;4933982;28;114557;-74
2021/07/28 00:05:14;;;;;;;10.45;6.20;;;;;;;21.17;59.82;100924.84;4942044;28;123780;-74
2021/07/28 00:07:41;;;;;;;9.18;5.97;;;;;;;21.14;59.61;100923.28;4926059;28;123954;-74
2021/07/28 00:10:09;;;;;;;8.38;6.13;;;;;;;21.12;59.82;100917.16;4915667;28;114157;-74
2021/07/28 00:12:36;;;;;;;8.18;5.85;;;;;;;21.08;59.68;100926.50;4924513;28;113535;-74
2021/07/28 00:15:04;;;;;;;8.27;5.70;;;;;;;21.05;59.75;100925.94;4920226;28;124505;-73
2021/07/28 00:17:31;;;;;;;11.55;5.90;;;;;;;21.01;59.54;100919.97;4917058;28;123773;-73
2021/07/28 00:20:04;;;;;;;11.20;6.15;;;;;;;20.97;59.46;100923.91;4924967;28;114971;-73
2021/07/28 00:25:21;;;;;;;9.07;5.80;;;;;;;20.87;59.85;100923.00;4917992;28;125441;-74
2021/07/28 00:27:50;;;;;;;8.45;5.45;;;;;;;20.84;59.96;100912.53;4906728;28;122723;-75
2021/07/28 00:30:17;;;;;;;10.10;5.55;;;;;;;20.82;59.91;100917.19;4916319;28;115570;-74
2021/07/28 00:32:44;;;;;;;8.85;5.63;;;;;;;20.77;60.06;100907.66;4921553;28;114575;-73
2021/07/28 00:35:12;;;;;;;9.98;5.95;;;;;;;20.75;60.09;100904.25;4921009;28;123211;-73
2021/07/28 00:37:40;;;;;;;8.45;5.38;;;;;;;20.71;60.05;100908.19;4919592;28;123015;-73
2021/07/28 00:40:07;;;;;;;10.48;5.95;;;;;;;20.67;60.12;100912.13;4918282;28;113792;-73
2021/07/28 00:42:34;;;;;;;7.32;5.25;;;;;;;20.63;60.29;100897.25;4918803;28;114016;-73
2021/07/28 00:45:01;;;;;;;8.52;5.22;;;;;;;20.61;60.22;100897.38;4925808;28;123237;-73
2021/07/28 00:47:28;;;;;;;8.73;4.88;;;;;;;20.56;60.24;100896.03;4925429;28;123711;-73
2021/07/28 00:49:59;;;;;;;9.38;5.45;;;;;;;20.53;60.33;100889.09;4920725;28;113674;-73
2021/07/28 00:52:29;;;;;;;8.52;5.47;;;;;;;20.52;60.45;100891.91;4915671;28;113945;-73
2021/07/28 00:54:56;;;;;;;9.48;5.20;;;;;;;20.50;60.47;100886.66;4919584;28;124542;-73
2021/07/28 00:57:23;;;;;;;8.88;5.47;;;;;;;20.49;60.46;100884.09;4924621;28;123510;-73
2021/07/28 00:59:52;;;;;;;9.40;5.78;;;;;;;20.47;60.50;100883.38;4933854;28;113106;-73
2021/07/28 01:02:19;;;;;;;9.48;5.68;;;;;;;20.46;60.51;100881.69;4944376;28;113202;-73
2021/07/28 01:04:46;;;;;;;10.88;5.50;;;;;;;20.43;60.56;100882.78;4941253;28;126724;-75
2021/07/28 01:07:13;;;;;;;8.10;5.28;;;;;;;20.42;60.51;100881.94;4947349;28;124000;-74
2021/07/28 01:09:40;;;;;;;11.15;5.63;;;;;;;20.40;60.43;100877.69;4936037;28;115013;-73
2021/07/28 01:12:08;;;;;;;10.45;5.80;;;;;;;20.38;60.56;100875.13;4933230;28;114444;-73
2021/07/28 01:14:35;;;;;;;8.02;5.50;;;;;;;20.36;60.61;100874.41;4933831;28;126427;-73
2021/07/28 01:17:03;;;;;;;10.02;5.90;;;;;;;20.35;60.49;100875.38;4928629;28;124405;-73
2021/07/28 01:19:35;;;;;;;9.43;5.35;;;;;;;20.33;60.82;100871.97;4922204;28;114388;-73
2021/07/28 01:22:02;;;;;;;8.57;5.38;;;;;;;20.32;60.72;100872.94;4925233;28;115512;-73
2021/07/28 01:24:30;;;;;;;10.07;6.03;;;;;;;20.33;60.75;100871.13;4924598;28;124145;-74
2021/07/28 01:26:59;;;;;;;8.98;5.85;;;;;;;20.30;60.33;100872.22;4925681;28;122571;-73
2021/07/28 01:29:26;;;;;;;10.98;5.82;;;;;;;20.29;60.77;100873.22;4922867;28;114170;-73
2021/07/28 01:31:54;;;;;;;9.30;5.90;;;;;;;20.28;60.61;100868.81;4919013;28;114211;-74
2021/07/28 01:34:21;;;;;;;9.27;5.90;;;;;;;20.28;60.75;100873.34;4920587;28;123975;-73
2021/07/28 01:36:51;;;;;;;8.23;5.15;;;;;;;20.27;60.63;100872.50;4928158;28;123770;-73
2021/07/28 01:39:18;;;;;;;11.88;5.90;;;;;;;20.26;60.58;100875.31;4909834;28;114432;-73
2021/07/28 01:41:57;;;;;;;8.70;5.60;;;;;;;20.22;60.43;100869.34;4931353;28;113045;-73
2021/07/28 01:44:24;;;;;;;9.20;5.22;;;;;;;20.21;60.55;100875.69;4915695;28;124047;-73
2021/07/28 01:46:51;;;;;;;8.43;5.80;;;;;;;20.19;60.52;100869.59;4917446;28;125012;-73
2021/07/28 01:49:19;;;;;;;9.25;5.57;;;;;;;20.17;60.51;100866.19;4922696;28;113655;-73
2021/07/28 01:51:46;;;;;;;8.55;5.32;;;;;;;20.14;60.62;100871.84;4929231;28;113759;-71
2021/07/28 01:54:13;;;;;;;10.30;5.45;;;;;;;20.10;60.82;100870.38;4915891;28;123788;-71
2021/07/28 01:56:43;;;;;;;11.35;6.10;;;;;;;20.07;60.74;100878.72;4912787;28;122940;-73
2021/07/28 01:59:12;;;;;;;10.95;5.85;;;;;;;20.06;60.89;100871.63;4909207;28;113973;-72
2021/07/28 02:01:39;;;;;;;9.90;5.68;;;;;;;20.03;60.93;100870.91;4928657;28;113323;-72
2021/07/28 02:04:06;;;;;;;10.18;6.57;;;;;;;20.03;60.79;100873.59;4922927;28;124114;-72
2021/07/28 02:06:33;;;;;;;9.52;6.47;;;;;;;20.02;60.65;100869.22;4924206;28;124035;-72
2021/07/28 02:09:01;;;;;;;10.60;6.07;;;;;;;19.99;60.79;100864.09;4928770;28;115187;-72
2021/07/28 02:11:28;;;;;;;10.05;6.40;;;;;;;19.92;60.75;100860.19;4921213;28;115073;-72
2021/07/28 02:13:55;;;;;;;11.05;6.32;;;;;;;19.88;60.96;100866.81;4916887;28;125068;-72
2021/07/28 02:16:22;;;;;;;10.30;6.25;;;;;;;19.84;60.98;100866.22;4919162;28;124375;-72
2021/07/28 02:18:49;;;;;;;8.23;5.75;;;;;;;19.82;61.01;100864.66;4916158;28;114572;-71
2021/07/28 02:21:16;;;;;;;12.63;6.32;;;;;;;19.80;60.98;100858.56;4917515;28;113949;-72
2021/07/28 02:23:43;;;;;;;10.82;7.03;;;;;;;19.77;60.91;100865.03;4920871;28;124054;-72
2021/07/28 02:26:10;;;;;;;11.73;5.75;;;;;;;19.74;61.05;100869.81;4929331;28;123285;-72
2021/07/28 02:28:37;;;;;;;9.50;6.03;;;;;;;19.72;61.05;100866.34;4910406;28;113612;-72
2021/07/28 02:31:04;;;;;;;9.52;5.68;;;;;;;19.70;61.01;100858.41;4922258;28;113888;-72
2021/07/28 02:33:31;;;;;;;11.18;6.00;;;;;;;19.69;61.40;100856.72;4928926;28;123803;-72
2021/07/28 02:35:59;;;;;;;11.45;6.57;;;;;;;19.68;61.03;100854.16;4928078;28;124575;-72
2021/07/28 02:38:26;;;;;;;9.50;6.18;;;;;;;19.67;61.04;100852.47;4924124;28;115097;-72
2021/07/28 02:40:53;;;;;;;10.50;6.00;;;;;;;19.64;61.07;100853.56;4921623;28;113242;-72
2021/07/28 02:43:20;;;;;;;9.27;6.43;;;;;;;19.61;61.12;100860.06;4930205;28;124204;-72
2021/07/28 02:45:47;;;;;;;12.07;6.55;;;;;;;19.57;61.06;100853.25;4920131;28;124879;-72
2021/07/28 02:48:14;;;;;;;10.38;5.95;;;;;;;19.53;61.19;100854.44;4918950;28;115136;-72
2021/07/28 02:50:41;;;;;;;8.43;6.10;;;;;;;19.50;61.15;100852.03;4925397;28;113103;-72
2021/07/28 02:53:08;;;;;;;10.13;6.40;;;;;;;19.47;61.19;100851.44;4919772;28;124997;-72
2021/07/28 02:55:36;;;;;;;10.35;6.53;;;;;;;19.44;61.17;100847.19;4916486;28;124293;-72
2021/07/28 02:58:02;;;;;;;10.52;6.47;;;;;;;19.40;61.25;100853.75;4917163;28;115371;-72
2021/07/28 03:00:30;;;;;;;9.88;6.43;;;;;;;19.36;61.43;100855.84;4919409;28;114687;-72
2021/07/28 03:02:57;;;;;;;10.25;6.32;;;;;;;19.35;61.40;100853.31;4919254;28;124896;-72
2021/07/28 03:05:24;;;;;;;10.40;6.22;;;;;;;19.31;61.39;100852.69;4905984;28;122685;-72
2021/07/28 03:07:51;;;;;;;10.23;6.53;;;;;;;19.29;61.41;100848.41;4916500;28;114100;-72
2021/07/28 03:10:18;;;;;;;9.50;6.10;;;;;;;19.26;61.41;100853.06;4928062;28;114403;-71
2021/07/28 03:12:45;;;;;;;9.95;6.47;;;;;;;19.25;61.65;100854.06;4895082;28;124181;-72
2021/07/28 03:15:12;;;;;;;9.13;5.97;;;;;;;19.26;61.77;100854.91;4897646;28;123846;-72
2021/07/28 03:17:39;;;;;;;8.50;5.85;;;;;;;19.25;61.78;100854.06;4915959;28;113172;-72
2021/07/28 03:20:07;;;;;;;10.40;6.40;;;;;;;19.25;61.76;100853.22;4915411;28;114032;-72
2021/07/28 03:22:34;;;;;;;9.18;7.43;;;;;;;19.26;61.82;100850.38;4907322;28;124362;-72
2021/07/28 03:25:01;;;;;;;12.13;5.95;;;;;;;19.29;61.90;100853.78;4916801;28;124603;-72
2021/07/28 03:27:28;;;;;;;10.48;6.30;;;;;;;19.29;61.92;100853.78;4931879;28;113600;-72
2021/07/28 03:29:56;;;;;;;10.13;6.40;;;;;;;19.30;61.94;100844.75;4924361;28;113237;-72
2021/07/28 03:32:23;;;;;;;11.25;6.38;;;;;;;19.31;62.12;100851.81;4900876;28;124181;-72
2021/07/28 03:34:50;;;;;;;9.90;6.15;;;;;;;19.31;61.90;100847.31;4917287;28;124195;-72
2021/07/28 03:37:17;;;;;;;10.57;6.47;;;;;;;19.32;61.99;100849.00;4916786;28;114092;-71
2021/07/28 03:39:45;;;;;;;9.88;6.22;;;;;;;19.33;62.32;100849.91;4919620;28;114258;-72
2021/07/28 03:42:12;;;;;;;9.57;5.75;;;;;;;19.37;62.15;100856.72;4921450;28;124192;-72
2021/07/28 03:44:39;;;;;;;9.50;6.03;;;;;;;19.39;62.45;100860.13;4916646;28;123754;-72
2021/07/28 03:47:06;;;;;;;12.68;6.35;;;;;;;19.44;62.37;100852.56;4924566;28;115113;-72
2021/07/28 03:49:33;;;;;;;9.63;6.32;;;;;;;19.47;62.68;100852.28;4920820;28;114961;-72
2021/07/28 03:52:00;;;;;;;10.35;5.70;;;;;;;19.53;62.54;100850.91;4927413;28;124593;-72
2021/07/28 03:54:27;;;;;;;9.90;6.32;;;;;;;19.56;62.67;100851.53;4911594;28;123529;-72
2021/07/28 03:56:54;;;;;;;10.38;6.30;;;;;;;19.62;62.64;100856.38;4919870;28;114041;-72
2021/07/28 03:59:21;;;;;;;8.52;5.65;;;;;;;19.65;62.57;100850.75;4920037;28;114401;-73
2021/07/28 04:01:51;;;;;;;10.23;6.43;;;;;;;19.70;62.73;100844.16;4925174;28;124292;-72
2021/07/28 04:04:19;;;;;;;11.00;6.32;;;;;;;19.75;62.57;100844.66;4920879;28;124048;-72
2021/07/28 04:06:46;;;;;;;10.93;6.38;;;;;;;19.78;62.69;100844.41;4925241;28;114159;-72
2021/07/28 04:09:13;;;;;;;10.10;5.97;;;;;;;19.82;62.42;100840.47;4926812;28;114721;-72
2021/07/28 04:11:40;;;;;;;11.60;5.97;;;;;;;19.85;62.64;100845.56;4927536;28;123814;-72
2021/07/28 04:14:07;;;;;;;10.88;6.07;;;;;;;19.88;62.80;100850.69;4926526;28;124603;-73
2021/07/28 04:16:34;;;;;;;10.55;6.70;;;;;;;19.92;62.70;100838.69;4929849;28;114187;-73
2021/07/28 04:19:01;;;;;;;11.15;5.97;;;;;;;19.95;62.56;100840.28;4928470;28;113882;-72
2021/07/28 04:21:28;;;;;;;10.95;6.35;;;;;;;19.96;62.61;100834.75;4920384;28;124770;-72
2021/07/28 04:23:55;;;;;;;11.60;6.63;;;;;;;20.00;62.84;100844.28;4928802;28;122687;-72
2021/07/28 04:26:22;;;;;;;10.90;6.80;;;;;;;20.03;62.60;100838.63;4927931;28;114506;-72
2021/07/28 04:28:50;;;;;;;8.65;5.90;;;;;;;20.07;62.61;100838.38;4921617;28;113978;-72
2021/07/28 04:31:18;;;;;;;11.77;6.25;;;;;;;20.09;62.58;100834.56;4938131;28;123495;-72
2021/07/28 04:33:45;;;;;;;9.98;6.40;;;;;;;20.13;62.68;100832.47;4919256;28;123470;-72
2021/07/28 04:36:12;;;;;;;12.18;6.68;;;;;;;20.15;62.66;100833.19;4919880;28;115173;-72
2021/07/28 04:38:39;;;;;;;12.13;6.28;;;;;;;20.18;62.69;100825.72;4916908;28;113777;-73
2021/07/28 04:41:07;;;;;;;10.40;6.03;;;;;;;20.20;62.62;100833.66;4917538;28;122608;-72
2021/07/28 04:43:34;;;;;;;11.77;6.72;;;;;;;20.23;62.47;100833.41;4922148;28;122824;-72
2021/07/28 04:46:02;;;;;;;10.85;6.88;;;;;;;20.25;62.65;100842.19;4922019;28;114078;-72
2021/07/28 04:48:30;;;;;;;12.40;7.07;;;;;;;20.27;62.55;100840.22;4928978;28;113115;-72
2021/07/28 04:50:58;;;;;;;9.30;5.97;;;;;;;20.29;62.56;100843.63;4929694;28;124392;-72
2021/07/28 04:53:28;;;;;;;9.88;6.20;;;;;;;20.31;62.71;100832.75;4926116;28;123657;-72
2021/07/28 04:55:57;;;;;;;9.27;6.35;;;;;;;20.34;62.67;100838.72;4943389;28;113259;-72
2021/07/28 04:58:25;;;;;;;10.60;6.03;;;;;;;20.37;62.55;100841.13;4929834;28;113035;-72
2021/07/28 05:00:53;;;;;;;9.18;6.47;;;;;;;20.40;62.72;100835.50;4927928;28;123611;-72
2021/07/28 05:03:20;;;;;;;10.35;6.68;;;;;;;20.42;62.72;100844.28;4924853;28;123301;-72
2021/07/28 05:05:48;;;;;;;9.77;6.55;;;;;;;20.46;62.67;100844.88;4928695;28;114331;-74
2021/07/28 05:08:15;;;;;;;12.27;6.85;;;;;;;20.49;62.48;100833.81;4920904;28;114078;-72
2021/07/28 05:10:42;;;;;;;11.43;6.68;;;;;;;20.50;62.50;100840.06;4921606;28;124462;-73
2021/07/28 05:13:09;;;;;;;9.35;5.95;;;;;;;20.52;62.66;100838.94;4922212;28;123501;-72
2021/07/28 05:15:36;;;;;;;9.90;6.28;;;;;;;20.52;62.63;100838.94;4930179;28;113942;-74
2021/07/28 05:18:03;;;;;;;11.65;6.82;;;;;;;20.54;62.70;100844.19;4919640;28;113427;-72
2021/07/28 05:20:30;;;;;;;10.25;6.68;;;;;;;20.57;62.66;100836.72;4917438;28;124206;-71
2021/07/28 05:22:57;;;;;;;11.90;7.25;;;;;;;20.59;62.73;100839.28;4922442;28;123129;-72
2021/07/28 05:25:27;;;;;;;12.68;7.00;;;;;;;20.61;62.49;100848.09;4918609;28;116152;-73
2021/07/28 05:27:55;;;;;;;10.88;6.72;;;;;;;20.65;62.71;100854.91;4916907;28;113042;-71
2021/07/28 05:30:22;;;;;;;10.48;6.43;;;;;;;20.67;62.80;100847.53;4919380;28;123903;-72
2021/07/28 05:32:49;;;;;;;10.07;6.93;;;;;;;20.69;62.75;100848.25;4917069;28;125929;-72
2021/07/28 05:35:16;;;;;;;11.70;6.80;;;;;;;20.73;62.61;100852.38;4920462;28;114288;-72
2021/07/28 05:37:43;;;;;;;11.20;6.63;;;;;;;20.75;62.92;100850.41;4923477;28;113631;-72
2021/07/28 05:40:11;;;;;;;11.98;6.95;;;;;;;20.79;62.83;100848.28;4915288;28;123299;-72
2021/07/28 05:42:38;;;;;;;10.32;6.90;;;;;;;20.83;62.85;100856.97;4916012;28;124299;-72
2021/07/28 05:45:06;;;;;;;10.38;6.93;;;;;;;20.86;62.66;100851.31;4918695;28;114628;-72
2021/07/28 05:47:33;;;;;;;11.23;6.88;;;;;;;20.88;62.54;100849.34;4917175;28;114196;-72
2021/07/28 05:50:00;;;;;;;12.05;7.15;;;;;;;20.92;62.64;100851.59;4919096;28;123572;-72
2021/07/28 05:52:27;;;;;;;9.75;6.60;;;;;;;20.94;62.69;100848.78;4924859;28;123972;-72
2021/07/28 05:54:54;;;;;;;10.65;7.18;;;;;;;20.98;62.75;100850.22;4925184;28;114026;-72
2021/07/28 05:57:21;;;;;;;10.55;6.90;;;;;;;21.01;62.76;100849.94;4932237;28;114210;-72
2021/07/28 05:59:48;;;;;;;12.05;6.95;;;;;;;21.04;62.81;100849.69;4926286;28;124049;-73
2021/07/28 06:02:16;;;;;;;11.38;7.35;;;;;;;21.07;62.95;100844.00;4914138;28;123647;-72
2021/07/28 06:04:43;;;;;;;11.27;7.00;;;;;;;21.11;62.88;100845.44;4932146;28;114427;-73
2021/07/28 06:07:10;;;;;;;11.35;6.70;;;;;;;21.15;62.84;100844.19;4929566;28;113661;-72
2021/07/28 06:09:38;;;;;;;13.13;7.18;;;;;;;21.18;62.66;100851.13;4927473;28;124404;-74
2021/07/28 06:12:05;;;;;;;11.85;7.18;;;;;;;21.20;62.80;100850.00;4921746;28;123642;-72
2021/07/28 06:14:32;;;;;;;11.95;7.13;;;;;;;21.24;62.84;100850.56;4925426;28;114973;-73
2021/07/28 06:16:59;;;;;;;11.10;7.60;;;;;;;21.29;62.73;100842.09;4924895;28;114595;-72
2021/07/28 06:19:27;;;;;;;11.57;6.78;;;;;;;21.32;62.75;100841.78;4917813;28;124256;-72
2021/07/28 06:21:54;;;;;;;10.55;7.15;;;;;;;21.36;62.85;100843.22;4917229;28;123024;-72
2021/07/28 06:24:21;;;;;;;11.85;7.93;;;;;;;21.42;62.74;100848.06;4917704;28;114449;-72
2021/07/28 06:26:48;;;;;;;10.25;7.68;;;;;;;21.44;62.75;100846.09;4917119;28;113887;-71
2021/07/28 06:29:15;;;;;;;10.40;6.90;;;;;;;21.46;62.82;100843.28;4914089;28;123842;-73
2021/07/28 06:31:42;;;;;;;12.75;7.35;;;;;;;21.51;62.79;100847.25;4930497;28;123784;-72
2021/07/28 06:34:09;;;;;;;11.55;7.28;;;;;;;21.55;62.67;100845.97;4928071;28;114087;-72
2021/07/28 06:36:36;;;;;;;11.45;7.32;;;;;;;21.60;62.71;100860.88;4918889;28;113745;-72
2021/07/28 06:39:03;;;;;;;13.30;7.85;;;;;;;21.64;62.61;100851.50;4915492;28;124000;-72
2021/07/28 06:41:30;;;;;;;12.60;7.40;;;;;;;21.69;62.88;100849.25;4933073;28;123980;-72
2021/07/28 06:43:57;;;;;;;11.85;7.63;;;;;;;21.78;62.58;100853.81;4921927;28;114341;-72
2021/07/28 06:46:24;;;;;;;11.48;7.30;;;;;;;21.84;62.57;100853.22;4933169;28;113662;-72
2021/07/28 06:48:51;;;;;;;11.63;7.40;;;;;;;21.91;62.65;100859.75;4930688;28;124797;-72
2021/07/28 06:51:19;;;;;;;10.90;7.07;;;;;;;21.97;62.48;100848.38;4920145;28;124243;-70
2021/07/28 06:53:46;;;;;;;11.02;7.45;;;;;;;22.03;62.36;100851.50;4921573;28;116532;-71
2021/07/28 06:56:14;;;;;;;12.32;7.30;;;;;;;22.10;61.94;100855.34;4925244;28;114067;-72
2021/07/28 06:58:42;;;;;;;12.55;7.00;;;;;;;22.12;61.98;100856.03;4930378;28;124056;-72
2021/07/28 07:01:09;;;;;;;11.48;7.20;;;;;;;22.16;61.85;100857.47;4925387;28;124169;-71
2021/07/28 07:03:37;;;;;;;13.73;7.78;;;;;;;22.19;61.82;100867.97;4919308;28;115423;-73
2021/07/28 07:06:24;;;;;;;9.88;7.05;;;;;;;22.21;61.79;100865.97;4917280;28;114755;-72
2021/07/28 07:08:51;;;;;;;11.13;7.53;;;;;;;22.26;61.64;100861.00;4932319;28;123369;-72
2021/07/28 07:11:18;;;;;;;10.90;7.55;;;;;;;22.31;61.63;100866.84;4915227;28;123848;-70
2021/07/28 07:13:45;;;;;;;12.05;7.88;;;;;;;22.37;61.79;100859.16;4927359;28;114317;-70
2021/07/28 07:16:12;;;;;;;9.35;7.43;;;;;;;22.43;61.61;100858.56;4932007;28;114291;-72
2021/07/28 07:18:40;;;;;;;11.73;7.07;;;;;;;22.46;61.38;100858.28;4924598;28;125214;-72
2021/07/28 07:21:07;;;;;;;9.93;6.97;;;;;;;22.50;61.31;100854.28;4911803;28;122979;-70
2021/07/28 07:23:34;;;;;;;11.07;7.47;;;;;;;22.55;61.27;100857.41;4931703;28;113434;-70
2021/07/28 07:26:01;;;;;;;8.75;6.60;;;;;;;22.62;61.22;100850.44;4921408;28;113963;-70
2021/07/28 07:28:29;;;;;;;9.35;6.68;;;;;;;22.66;60.78;100854.53;4926740;28;123227;-71
2021/07/28 07:30:56;;;;;;;10.60;6.80;;;;;;;22.70;60.73;100845.13;4914182;28;123900;-72
2021/07/28 07:36:10;;;;;;;10.90;6.70;;;;;;;22.76;60.33;100850.94;4915857;28;114164;-71
2021/07/28 07:38:39;;;;;;;10.43;6.55;;;;;;;22.84;60.56;100851.03;4915868;28;124618;-73
2021/07/28 07:41:06;;;;;;;8.23;5.38;;;;;;;22.97;60.45;100856.94;4914602;28;124655;-73
2021/07/28 07:43:34;;;;;;;5.53;4.80;;;;;;;23.09;60.09;100850.41;4916996;28;114296;-72
2021/07/28 07:46:01;;;;;;;7.55;4.68;;;;;;;23.22;59.70;100849.16;4920269;28;113892;-73
2021/07/28 07:48:29;;;;;;;7.68;4.50;;;;;;;23.32;59.61;100866.19;4928354;28;124675;-70
2021/07/28 07:50:56;;;;;;;7.28;4.70;;;;;;;23.39;58.72;100856.44;4916500;28;123995;-73
2021/07/28 07:53:23;;;;;;;5.82;4.00;;;;;;;23.43;58.20;100863.28;4927656;28;115519;-72
2021/07/28 07:55:50;;;;;;;6.93;4.18;;;;;;;23.42;57.82;100861.56;4913901;28;113997;-73
2021/07/28 07:58:17;;;;;;;9.35;4.18;;;;;;;23.39;57.51;100867.25;4926521;28;124117;-73
2021/07/28 08:00:44;;;;;;;7.10;3.88;;;;;;;23.33;57.36;100862.47;4931243;28;123925;-72
2021/07/28 08:03:12;;;;;;;7.72;4.35;;;;;;;23.30;57.40;100873.56;4923187;28;114336;-72
2021/07/28 08:05:39;;;;;;;6.38;4.10;;;;;;;23.26;56.90;100866.78;4915130;28;112921;-72
2021/07/28 08:08:06;;;;;;;5.30;3.80;;;;;;;23.19;56.91;100860.28;4922927;28;124366;-74
2021/07/28 08:10:33;;;;;;;5.32;4.13;;;;;;;23.15;56.88;100864.28;4933873;28;123142;-72
2021/07/28 08:13:00;;;;;;;7.85;4.95;;;;;;;23.17;57.29;100862.28;4931361;28;114188;-71
2021/07/28 08:15:28;;;;;;;6.50;4.47;;;;;;;23.20;57.46;100851.19;4923877;28;113033;-73
2021/07/28 08:17:55;;;;;;;5.80;3.75;;;;;;;23.28;57.29;100859.38;4926379;28;123996;-71
2021/07/28 08:20:23;;;;;;;6.68;3.70;;;;;;;23.34;56.86;100858.78;4932602;28;123879;-72
2021/07/28 08:22:50;;;;;;;7.15;3.70;;;;;;;23.40;56.84;100847.34;4921134;28;113173;-71
2021/07/28 08:25:17;;;;;;;5.63;3.58;;;;;;;23.47;56.96;100853.84;4916462;28;113748;-74
2021/07/28 08:27:44;;;;;;;6.25;3.55;;;;;;;23.58;56.96;100854.63;4924065;28;123852;-73
2021/07/28 08:30:11;;;;;;;5.30;3.53;;;;;;;23.73;56.67;100847.66;4929564;28;124761;-73
2021/07/28 08:32:38;;;;;;;7.15;3.75;;;;;;;23.89;56.73;100858.66;4931616;28;114011;-72
2021/07/28 08:35:05;;;;;;;5.93;3.28;;;;;;;24.06;56.60;100848.00;4914552;28;113157;-72
2021/07/28 08:37:32;;;;;;;5.80;3.67;;;;;;;24.22;56.19;100837.31;4898182;28;123417;-72
2021/07/28 08:39:59;;;;;;;6.72;3.80;;;;;;;24.37;56.05;100844.81;4917887;28;124632;-73
2021/07/28 08:42:29;;;;;;;6.28;3.15;;;;;;;24.54;55.68;100838.53;4917109;28;114266;-75
2021/07/28 08:44:56;;;;;;;5.03;3.10;;;;;;;24.67;55.28;100847.06;4928052;28;114803;-73
2021/07/28 08:47:25;;;;;;;6.20;2.67;;;;;;;24.79;54.09;100842.22;4915150;28;124787;-74
2021/07/28 08:49:53;;;;;;;4.85;2.45;;;;;;;24.89;53.88;100843.97;4926837;28;123985;-72
2021/07/28 08:52:24;;;;;;;4.57;2.58;;;;;;;24.96;53.31;100845.84;4929553;28;113343;-72
2021/07/28 08:54:51;;;;;;;6.05;2.40;;;;;;;25.06;53.07;100851.13;4920809;28;114628;-72
2021/07/28 08:57:18;;;;;;;5.07;2.42;;;;;;;25.15;52.53;100843.91;4933916;28;124024;-71
2021/07/28 08:59:45;;;;;;;4.00;2.35;;;;;;;25.23;52.15;100841.22;4924835;28;123930;-71
2021/07/28 09:02:12;;;;;;;4.07;2.47;;;;;;;25.32;52.33;100837.53;4933601;28;114716;-71
2021/07/28 09:04:41;;;;;;;4.43;2.67;;;;;;;25.41;51.93;100846.50;4926256;28;113800;-73
2021/07/28 09:07:14;;;;;;;4.05;2.20;;;;;;;25.47;51.41;100835.03;4915981;28;122900;-70
2021/07/28 09:09:48;;;;;;;3.50;2.25;;;;;;;25.51;51.21;100838.25;4917087;28;124668;-71
2021/07/28 09:12:16;;;;;;;3.77;2.13;;;;;;;25.54;51.19;100848.75;4921264;28;114526;-72
2021/07/28 09:14:57;;;;;;;5.15;2.28;;;;;;;25.56;51.03;100846.72;4924994;28;113649;-70
2021/07/28 09:17:27;;;;;;;2.80;2.05;;;;;;;25.56;50.53;100853.00;4932047;28;124138;-69
2021/07/28 09:19:57;;;;;;;3.08;2.40;;;;;;;25.53;50.16;100844.34;4931969;28;122800;-71
2021/07/28 09:22:41;;;;;;;3.13;2.30;;;;;;;25.54;50.10;100854.16;4918171;28;114264;-71
2021/07/28 09:25:36;;;;;;;4.03;2.35;;;;;;;25.59;50.11;100846.41;4933066;28;113274;-72
2021/07/28 09:28:02;;;;;;;3.67;2.63;;;;;;;25.69;50.79;100847.06;4932007;28;123289;-70
2021/07/28 09:30:34;;;;;;;3.85;2.53;;;;;;;25.81;50.34;100851.16;4933776;28;124167;-73
2021/07/28 09:33:07;;;;;;;4.90;2.60;;;;;;;25.93;50.13;100856.28;4929501;28;116020;-71
2021/07/28 09:36:06;;;;;;;4.18;2.45;;;;;;;25.99;49.84;100852.88;4930029;28;115226;-71
2021/07/28 09:38:43;;;;;;;5.30;2.30;;;;;;;26.05;49.58;100846.81;4897954;28;123900;-71
2021/07/28 09:41:24;;;;;;;3.90;2.33;;;;;;;26.10;49.39;100844.41;4905497;28;122903;-71
2021/07/28 09:43:54;;;;;;;3.85;2.25;;;;;;;26.13;49.12;100844.06;4916619;28;114449;-72
2021/07/28 09:46:33;;;;;;;3.40;2.30;;;;;;;26.19;48.60;100848.81;4918249;28;114157;-74
2021/07/28 09:49:04;;;;;;;4.00;2.25;;;;;;;26.25;48.22;100843.72;4917102;28;124148;-72
2021/07/28 09:51:36;;;;;;;3.70;1.95;;;;;;;26.28;48.03;100841.50;4917344;28;123077;-72
2021/07/28 09:54:08;;;;;;;2.55;1.80;;;;;;;26.31;48.04;100840.31;4924156;28;114168;-71
2021/07/28 09:56:53;;;;;;;3.08;2.00;;;;;;;26.31;47.71;100851.16;4924448;28;113303;-71
2021/07/28 09:59:22;;;;;;;;;;;;;;;26.29;48.67;100847.78;4917931;28;124536;-73
2021/07/28 10:01:50;;;;;;;3.65;2.08;;;;;;;26.34;48.23;100850.84;4912397;28;122651;-71
2021/07/28 10:04:20;;;;;;;3.08;1.90;;;;;;;26.34;47.71;100850.84;4922845;28;114187;-70
2021/07/28 10:06:52;;;;;;;4.43;2.20;;;;;;;26.32;47.51;100845.56;4932671;28;114048;-73
2021/07/28 10:09:25;;;;;;;4.53;1.90;;;;;;;26.27;47.19;100844.38;4931052;28;123739;-71
2021/07/28 10:11:57;;;;;;;3.78;1.92;;;;;;;26.28;47.34;100846.09;4931922;28;124787;-70
2021/07/28 10:14:25;;;;;;;4.22;2.10;;;;;;;26.27;47.02;100838.97;4918576;28;114839;-71
2021/07/28 10:16:52;;;;;;;2.95;2.03;;;;;;;26.22;47.04;100840.31;4932653;28;113925;-72
2021/07/28 10:19:21;;;;;;;3.40;2.05;;;;;;;26.18;47.30;100830.84;4929103;28;124802;-70
2021/07/28 10:21:55;;;;;;;4.43;1.80;;;;;;;26.21;47.69;100830.47;4922754;28;123000;-72
2021/07/28 10:24:24;;;;;;;5.07;1.90;;;;;;;26.30;47.66;100833.19;4922847;28;114372;-72
2021/07/28 10:26:53;;;;;;;2.97;1.65;;;;;;;26.36;47.74;100833.34;4925967;28;115060;-72
2021/07/28 10:29:26;;;;;;;2.72;1.90;;;;;;;26.42;47.15;100831.81;4927362;28;123194;-72
2021/07/28 10:31:54;;;;;;;3.30;1.92;;;;;;;26.47;46.82;100834.84;4930521;28;123153;-73
2021/07/28 10:34:33;;;;;;;4.07;1.80;;;;;;;26.50;46.60;100830.94;4926327;28;114573;-74
2021/07/28 10:37:06;;;;;;;2.75;1.52;;;;;;;26.49;46.65;100837.41;4914820;28;113171;-71
2021/07/28 10:39:47;;;;;;;2.55;1.90;;;;;;;26.43;46.38;100838.94;4924515;28;124038;-72
2021/07/28 10:42:15;;;;;;;3.25;1.70;;;;;;;26.36;46.16;100827.06;4924062;28;124759;-73
2021/07/28 10:45:06;;;;;;;2.15;1.63;;;;;;;26.26;46.21;100837.25;4928142;28;113407;-72
2021/07/28 10:47:37;;;;;;;3.10;1.80;;;;;;;26.18;45.65;100833.56;4928963;28;114152;-72
2021/07/28 10:50:26;;;;;;;2.70;1.80;;;;;;;26.08;45.90;100835.59;4913235;28;123566;-71
2021/07/28 10:52:57;;;;;;;5.43;2.00;;;;;;;26.02;45.88;100830.84;4921464;28;123837;-73
2021/07/28 10:55:28;;;;;;;3.25;2.05;;;;;;;26.00;46.48;100833.72;4922175;28;113573;-71
2021/07/28 10:58:11;;;;;;;3.22;2.00;;;;;;;25.98;45.89;100830.34;4912698;28;114056;-70
2021/07/28 11:00:38;;;;;;;4.53;1.98;;;;;;;25.96;45.88;100837.81;4917821;28;123957;-73
2021/07/28 11:03:12;;;;;;;2.63;1.90;;;;;;;25.96;46.00;100842.38;4922536;28;124689;-73
2021/07/28 11:05:51;;;;;;;5.18;1.90;;;;;;;25.98;46.14;100834.91;4920664;28;114580;-72
2021/07/28 11:08:20;;;;;;;3.05;1.90;;;;;;;26.05;46.08;100830.50;4924541;28;114669;-73
2021/07/28 11:10:54;;;;;;;2.47;1.40;;;;;;;26.13;45.54;100833.22;4924833;28;123233;-73
2021/07/28 11:13:24;;;;;;;2.22;1.80;;;;;;;26.22;45.71;100829.47;4922264;28;123616;-70
2021/07/28 11:15:54;;;;;;;4.07;1.80;;;;;;;26.34;45.75;100823.69;4923261;28;116234;-70
2021/07/28 11:18:41;;;;;;;2.92;1.67;;;;;;;26.45;45.67;100823.31;4921198;28;114501;-73
2021/07/28 11:21:14;;;;;;;3.88;1.90;;;;;;;26.59;45.04;100830.75;4914401;28;123682;-72
2021/07/28 11:23:47;;;;;;;3.08;1.80;;;;;;;26.65;44.62;100837.38;4913197;28;123791;-72
2021/07/28 11:26:21;;;;;;;2.47;1.60;;;;;;;26.63;44.30;100824.97;4914180;28;114732;-71